Thursday, June 30, 2016
10:25 UTC
  |  Log In   |  Register Free
Airport Search:

Norwood Memorial Airport
(KOWD)

FAA data valid effective May 26 2016 - Jul 21 2016 (unless otherwise noted).

 
 
 
 
 
 
 
 
 
 
 
 
 
 
Current Aviation Weather for KOWD

Weather Summary


The most recent METAR observation for OWD was updated at: 12:53 UTC
METAR for KOWD is not available. Closest METAR is for KBOS
KOWD  (most recent observation was updatred at 30:09 UTC)
300953Z AUTO 00000KT 1/4SM FG VV002 14/13 A2994 RMK AO2 SLP137 T01390133

KBOS  (12.7 nm SW)   (most recent observation was updated at 30:09 UTC)
300954Z 31007KT 10SM FEW110 20/14 A2994 RMK AO2 SLP136 T02000139 $

KBED  (17.6 nm SE)   (most recent observation was updated at 30:09 UTC)
300956Z AUTO 27005KT 10SM CLR 16/13 A2993 RMK AO2 SLP144 T01560133

TAF for KOWD is not available.
KBOS  (12.7 nm SW)   (most recent observation was updatred at 30:08 UTC)
AMD 300821Z 3008/0112 32008KT P6SM SCT150 FM301400 35005KT P6SM FEW250 FM301600 10009KT P6SM FEW250 FM302100 14011KT P6SM FEW080 FM302300 18010KT P6SM FEW200 FM010300 22008KT P6SM FEW250 FM010900 23004KT P6SM SCT250


KBED  (17.6 nm SE)   (most recent observation was updatred at 30:08 UTC)
AMD 300819Z 3008/0106 33003KT P6SM FEW080 FM301900 24006KT P6SM FEW080 FM010500 00000KT P6SM FEW250


KPVD  (30.2 nm NE)   (most recent observation was updatred at 30:08 UTC)
AMD 300822Z 3008/0106 31005KT P6SM FEW100 FM301700 17007KT P6SM FEW070 FM302100 21011KT P6SM FEW080 FM010100 21007KT P6SM FEW080
GlobalAir.com is loading additional information.
 Current Weather at OWD
59.0 F° (15.0 C°)

North winds at 0.0 mph
Pressure:
29.92 in
Humidity:
96%
Wind:
North at 0.0 mph
Dew Point:
57.9 F° (14.4 C°)
Visibility:
1.50 mi
OWD NOAA Radar




Find All Airport Services Find A Hotel Find A Rental Car Find A Golf Course Find A Restaurant $100 Hamburger



Airport Weather Forecast for KOWD

Translated METAR for KOWD (0953 UTC)
METAR:
KOWD 300953Z AUTO 00000KT 1/4SM FG VV002 14/13 A2994 RMK AO2 SLP137 T01390133
Conditions at:
KOWD (Norwood Memorial, MA) observed 0953 UTC 30 June 2016
Temperature:
14°C (57.2°F)
Dewpoint:
13°C (55.4°F) [RH = 93.7]
Pressure:
29.94 inches Hg (1013.9 mb)
pressure at sea level is 137 in Hg
Winds:
from the N (000 degrees) at 0 mph (0 knots: 0 m/s)
Visibility:
.25 mile(s)
Ceiling:
indefinate ceiling with vertical visibility of 200 feet AGL
Clouds:
obscured sky
Remarks:
site is un-manned
site is automated and HAS a precipitation sensor

FBO's on the Field
FBO Company Facility Photos Services Transportation Aviation Fuel Prices: Prices include tax
Catering Weather Repair Courtesy Rental Type 100LL JetA JetA+ MOGAS 8087
 
FlightLevel Aviation - OWD

Currently rated 5 by 3 people
FS:Shell
Last Updated: Jun-28
Login to update fuel prices
SS:
Contact FlightLevel Aviation - OWDMore FBO Information
 
Add another FBO Facility Photos Catering Weather Repair Courtesy Rental Type 100LL JetA JetA+ MOGAS 8087
Services Transportation Aviation Fuel Prices: Prices include tax


model-print
model-print
model-print
model-print